sensor_id;sensor_type;location;lat;lon;timestamp;P1;durP1;ratioP1;P2;durP2;ratioP2
52248;SDS011;38541;48.130;8.378;2024-03-02T00:00:07;5.07;;;4.60;;
52248;SDS011;38541;48.130;8.378;2024-03-02T00:02:43;5.68;;;5.10;;
52248;SDS011;38541;48.130;8.378;2024-03-02T00:05:11;5.68;;;5.10;;
52248;SDS011;38541;48.130;8.378;2024-03-02T00:07:40;4.90;;;4.30;;
52248;SDS011;38541;48.130;8.378;2024-03-02T00:10:08;5.20;;;4.70;;
52248;SDS011;38541;48.130;8.378;2024-03-02T00:12:39;5.57;;;5.07;;
52248;SDS011;38541;48.130;8.378;2024-03-02T00:18:13;4.78;;;3.92;;
52248;SDS011;38541;48.130;8.378;2024-03-02T00:20:42;4.82;;;4.43;;
52248;SDS011;38541;48.130;8.378;2024-03-02T00:23:09;4.70;;;4.28;;
52248;SDS011;38541;48.130;8.378;2024-03-02T00:25:43;4.80;;;4.05;;
52248;SDS011;38541;48.130;8.378;2024-03-02T00:28:22;4.85;;;4.15;;
52248;SDS011;38541;48.130;8.378;2024-03-02T00:31:07;4.25;;;3.88;;
52248;SDS011;38541;48.130;8.378;2024-03-02T00:33:35;5.38;;;4.88;;
52248;SDS011;38541;48.130;8.378;2024-03-02T00:36:03;4.68;;;4.25;;
52248;SDS011;38541;48.130;8.378;2024-03-02T00:38:30;4.72;;;4.32;;
52248;SDS011;38541;48.130;8.378;2024-03-02T00:41:04;4.40;;;4.00;;
52248;SDS011;38541;48.130;8.378;2024-03-02T00:43:41;4.38;;;3.97;;
52248;SDS011;38541;48.130;8.378;2024-03-02T00:46:18;3.97;;;3.58;;
52248;SDS011;38541;48.130;8.378;2024-03-02T00:48:55;3.97;;;3.67;;
52248;SDS011;38541;48.130;8.378;2024-03-02T00:51:24;4.35;;;3.95;;
52248;SDS011;38541;48.130;8.378;2024-03-02T00:53:53;3.50;;;3.20;;
52248;SDS011;38541;48.130;8.378;2024-03-02T00:56:24;3.53;;;3.22;;
52248;SDS011;38541;48.130;8.378;2024-03-02T00:58:51;4.53;;;4.13;;
52248;SDS011;38541;48.130;8.378;2024-03-02T01:01:19;5.55;;;3.92;;
52248;SDS011;38541;48.130;8.378;2024-03-02T01:03:49;4.25;;;3.83;;
52248;SDS011;38541;48.130;8.378;2024-03-02T01:06:16;4.15;;;3.75;;
52248;SDS011;38541;48.130;8.378;2024-03-02T01:08:43;3.70;;;3.40;;
52248;SDS011;38541;48.130;8.378;2024-03-02T01:11:10;4.03;;;3.63;;
52248;SDS011;38541;48.130;8.378;2024-03-02T01:13:37;3.58;;;3.28;;
52248;SDS011;38541;48.130;8.378;2024-03-02T01:16:04;4.30;;;3.85;;
52248;SDS011;38541;48.130;8.378;2024-03-02T01:18:30;4.10;;;3.70;;
52248;SDS011;38541;48.130;8.378;2024-03-02T01:20:57;4.25;;;3.85;;
52248;SDS011;38541;48.130;8.378;2024-03-02T01:23:24;4.18;;;3.80;;
52248;SDS011;38541;48.130;8.378;2024-03-02T01:25:51;4.60;;;4.20;;
52248;SDS011;38541;48.130;8.378;2024-03-02T01:28:18;4.72;;;4.28;;
52248;SDS011;38541;48.130;8.378;2024-03-02T01:30:45;4.53;;;4.03;;
52248;SDS011;38541;48.130;8.378;2024-03-02T01:33:11;6.00;;;4.15;;
52248;SDS011;38541;48.130;8.378;2024-03-02T01:35:39;4.70;;;4.28;;
52248;SDS011;38541;48.130;8.378;2024-03-02T01:38:05;4.28;;;3.88;;
52248;SDS011;38541;48.130;8.378;2024-03-02T01:40:33;5.28;;;4.22;;
52248;SDS011;38541;48.130;8.378;2024-03-02T01:43:00;4.20;;;3.80;;
52248;SDS011;38541;48.130;8.378;2024-03-02T01:45:27;3.70;;;3.30;;
52248;SDS011;38541;48.130;8.378;2024-03-02T01:47:53;3.90;;;3.58;;
52248;SDS011;38541;48.130;8.378;2024-03-02T01:52:57;4.88;;;4.25;;
52248;SDS011;38541;48.130;8.378;2024-03-02T01:55:24;3.88;;;3.53;;
52248;SDS011;38541;48.130;8.378;2024-03-02T01:57:51;4.07;;;3.67;;
52248;SDS011;38541;48.130;8.378;2024-03-02T02:00:19;4.32;;;3.92;;
52248;SDS011;38541;48.130;8.378;2024-03-02T02:02:46;4.20;;;3.80;;
52248;SDS011;38541;48.130;8.378;2024-03-02T02:05:14;4.18;;;3.70;;
52248;SDS011;38541;48.130;8.378;2024-03-02T02:07:41;3.95;;;3.53;;
52248;SDS011;38541;48.130;8.378;2024-03-02T02:10:09;3.55;;;3.25;;
52248;SDS011;38541;48.130;8.378;2024-03-02T02:12:37;3.95;;;3.55;;
52248;SDS011;38541;48.130;8.378;2024-03-02T02:15:04;4.53;;;4.13;;
52248;SDS011;38541;48.130;8.378;2024-03-02T02:17:47;3.83;;;3.38;;
52248;SDS011;38541;48.130;8.378;2024-03-02T02:20:14;3.58;;;3.28;;
52248;SDS011;38541;48.130;8.378;2024-03-02T02:22:40;3.95;;;3.60;;
52248;SDS011;38541;48.130;8.378;2024-03-02T02:25:07;4.28;;;3.88;;
52248;SDS011;38541;48.130;8.378;2024-03-02T02:27:33;3.72;;;3.42;;
52248;SDS011;38541;48.130;8.378;2024-03-02T02:30:00;4.00;;;3.60;;
52248;SDS011;38541;48.130;8.378;2024-03-02T02:32:27;3.95;;;3.65;;
52248;SDS011;38541;48.130;8.378;2024-03-02T02:34:53;3.47;;;3.17;;
52248;SDS011;38541;48.130;8.378;2024-03-02T02:37:20;3.50;;;3.03;;
52248;SDS011;38541;48.130;8.378;2024-03-02T02:39:46;3.53;;;3.22;;
52248;SDS011;38541;48.130;8.378;2024-03-02T02:42:13;3.67;;;3.38;;
52248;SDS011;38541;48.130;8.378;2024-03-02T02:44:40;3.78;;;3.47;;
52248;SDS011;38541;48.130;8.378;2024-03-02T02:47:06;3.88;;;3.50;;
52248;SDS011;38541;48.130;8.378;2024-03-02T02:49:33;3.63;;;3.30;;
52248;SDS011;38541;48.130;8.378;2024-03-02T02:51:59;4.05;;;3.60;;
52248;SDS011;38541;48.130;8.378;2024-03-02T02:54:26;3.67;;;3.35;;
52248;SDS011;38541;48.130;8.378;2024-03-02T02:56:52;2.92;;;2.72;;
52248;SDS011;38541;48.130;8.378;2024-03-02T02:59:19;3.55;;;3.10;;
52248;SDS011;38541;48.130;8.378;2024-03-02T03:01:45;3.67;;;2.92;;
52248;SDS011;38541;48.130;8.378;2024-03-02T03:04:12;3.13;;;2.88;;
52248;SDS011;38541;48.130;8.378;2024-03-02T03:06:39;4.15;;;3.75;;
52248;SDS011;38541;48.130;8.378;2024-03-02T03:09:05;3.63;;;3.00;;
52248;SDS011;38541;48.130;8.378;2024-03-02T03:11:32;3.83;;;3.33;;
52248;SDS011;38541;48.130;8.378;2024-03-02T03:13:58;3.40;;;3.10;;
52248;SDS011;38541;48.130;8.378;2024-03-02T03:16:26;3.67;;;3.38;;
52248;SDS011;38541;48.130;8.378;2024-03-02T03:18:52;3.80;;;3.45;;
52248;SDS011;38541;48.130;8.378;2024-03-02T03:21:19;3.65;;;3.35;;
52248;SDS011;38541;48.130;8.378;2024-03-02T03:23:46;3.58;;;3.28;;
52248;SDS011;38541;48.130;8.378;2024-03-02T03:26:13;3.67;;;3.20;;
52248;SDS011;38541;48.130;8.378;2024-03-02T03:28:39;3.90;;;3.55;;
52248;SDS011;38541;48.130;8.378;2024-03-02T03:31:06;3.60;;;3.30;;
52248;SDS011;38541;48.130;8.378;2024-03-02T03:33:33;4.15;;;3.60;;
52248;SDS011;38541;48.130;8.378;2024-03-02T03:36:00;5.05;;;3.60;;
52248;SDS011;38541;48.130;8.378;2024-03-02T03:38:26;4.10;;;3.33;;
52248;SDS011;38541;48.130;8.378;2024-03-02T03:40:53;3.50;;;3.20;;
52248;SDS011;38541;48.130;8.378;2024-03-02T03:43:19;3.45;;;2.90;;
52248;SDS011;38541;48.130;8.378;2024-03-02T03:45:46;3.58;;;3.08;;
52248;SDS011;38541;48.130;8.378;2024-03-02T03:48:12;4.32;;;3.47;;
52248;SDS011;38541;48.130;8.378;2024-03-02T03:50:39;3.63;;;3.25;;
52248;SDS011;38541;48.130;8.378;2024-03-02T03:53:05;3.60;;;3.22;;
52248;SDS011;38541;48.130;8.378;2024-03-02T03:55:32;3.88;;;3.47;;
52248;SDS011;38541;48.130;8.378;2024-03-02T03:57:58;3.40;;;2.80;;
52248;SDS011;38541;48.130;8.378;2024-03-02T04:00:25;3.72;;;3.25;;
52248;SDS011;38541;48.130;8.378;2024-03-02T04:02:52;3.70;;;2.95;;
52248;SDS011;38541;48.130;8.378;2024-03-02T04:05:18;2.92;;;2.70;;
52248;SDS011;38541;48.130;8.378;2024-03-02T04:07:45;3.67;;;3.08;;
52248;SDS011;38541;48.130;8.378;2024-03-02T04:10:11;3.92;;;3.60;;
52248;SDS011;38541;48.130;8.378;2024-03-02T04:12:39;3.13;;;2.80;;
52248;SDS011;38541;48.130;8.378;2024-03-02T04:15:05;3.28;;;3.03;;
52248;SDS011;38541;48.130;8.378;2024-03-02T04:17:33;3.72;;;3.38;;
52248;SDS011;38541;48.130;8.378;2024-03-02T04:20:00;3.80;;;3.28;;
52248;SDS011;38541;48.130;8.378;2024-03-02T04:22:27;4.18;;;3.67;;
52248;SDS011;38541;48.130;8.378;2024-03-02T04:24:54;3.03;;;2.83;;
52248;SDS011;38541;48.130;8.378;2024-03-02T04:27:21;3.38;;;2.90;;
52248;SDS011;38541;48.130;8.378;2024-03-02T04:29:48;3.38;;;3.08;;
52248;SDS011;38541;48.130;8.378;2024-03-02T04:32:14;3.97;;;3.50;;
52248;SDS011;38541;48.130;8.378;2024-03-02T04:34:41;4.63;;;3.47;;
52248;SDS011;38541;48.130;8.378;2024-03-02T04:37:08;3.50;;;3.20;;
52248;SDS011;38541;48.130;8.378;2024-03-02T04:39:38;4.15;;;3.22;;
52248;SDS011;38541;48.130;8.378;2024-03-02T04:42:04;5.68;;;3.30;;
52248;SDS011;38541;48.130;8.378;2024-03-02T04:44:31;5.10;;;3.35;;
52248;SDS011;38541;48.130;8.378;2024-03-02T04:46:57;4.10;;;3.63;;
52248;SDS011;38541;48.130;8.378;2024-03-02T04:49:24;3.30;;;3.00;;
52248;SDS011;38541;48.130;8.378;2024-03-02T04:51:51;5.22;;;2.90;;
52248;SDS011;38541;48.130;8.378;2024-03-02T04:54:17;3.30;;;3.00;;
52248;SDS011;38541;48.130;8.378;2024-03-02T04:56:44;3.50;;;3.20;;
52248;SDS011;38541;48.130;8.378;2024-03-02T04:59:16;2.97;;;2.78;;
52248;SDS011;38541;48.130;8.378;2024-03-02T05:01:43;3.72;;;3.28;;
52248;SDS011;38541;48.130;8.378;2024-03-02T05:04:10;4.30;;;3.60;;
52248;SDS011;38541;48.130;8.378;2024-03-02T05:06:38;4.03;;;3.50;;
52248;SDS011;38541;48.130;8.378;2024-03-02T05:09:08;4.13;;;3.40;;
52248;SDS011;38541;48.130;8.378;2024-03-02T05:11:35;4.93;;;3.40;;
52248;SDS011;38541;48.130;8.378;2024-03-02T05:14:04;4.03;;;3.65;;
52248;SDS011;38541;48.130;8.378;2024-03-02T05:16:35;3.88;;;3.28;;
52248;SDS011;38541;48.130;8.378;2024-03-02T05:19:06;4.47;;;3.42;;
52248;SDS011;38541;48.130;8.378;2024-03-02T05:21:33;4.45;;;3.40;;
52248;SDS011;38541;48.130;8.378;2024-03-02T05:24:00;6.72;;;4.43;;
52248;SDS011;38541;48.130;8.378;2024-03-02T05:26:27;5.28;;;3.88;;
52248;SDS011;38541;48.130;8.378;2024-03-02T05:28:53;5.10;;;4.07;;
52248;SDS011;38541;48.130;8.378;2024-03-02T05:31:20;5.25;;;3.97;;
52248;SDS011;38541;48.130;8.378;2024-03-02T05:33:46;4.85;;;3.90;;
52248;SDS011;38541;48.130;8.378;2024-03-02T05:36:13;7.47;;;4.68;;
52248;SDS011;38541;48.130;8.378;2024-03-02T05:38:39;7.60;;;4.75;;
52248;SDS011;38541;48.130;8.378;2024-03-02T05:41:06;5.05;;;4.55;;
52248;SDS011;38541;48.130;8.378;2024-03-02T05:43:32;7.45;;;4.72;;
52248;SDS011;38541;48.130;8.378;2024-03-02T05:45:59;12.48;;;5.13;;
52248;SDS011;38541;48.130;8.378;2024-03-02T05:48:26;6.85;;;4.90;;
52248;SDS011;38541;48.130;8.378;2024-03-02T05:50:52;8.02;;;4.80;;
52248;SDS011;38541;48.130;8.378;2024-03-02T05:53:19;7.88;;;5.35;;
52248;SDS011;38541;48.130;8.378;2024-03-02T05:55:45;6.10;;;4.25;;
52248;SDS011;38541;48.130;8.378;2024-03-02T05:58:12;7.80;;;4.72;;
52248;SDS011;38541;48.130;8.378;2024-03-02T06:00:52;6.70;;;4.13;;
52248;SDS011;38541;48.130;8.378;2024-03-02T06:03:20;6.50;;;4.65;;
52248;SDS011;38541;48.130;8.378;2024-03-02T06:05:47;9.25;;;4.80;;
52248;SDS011;38541;48.130;8.378;2024-03-02T06:08:15;5.57;;;4.70;;
52248;SDS011;38541;48.130;8.378;2024-03-02T06:10:42;6.00;;;4.53;;
52248;SDS011;38541;48.130;8.378;2024-03-02T06:13:09;4.55;;;4.15;;
52248;SDS011;38541;48.130;8.378;2024-03-02T06:15:35;5.93;;;4.82;;
52248;SDS011;38541;48.130;8.378;2024-03-02T06:18:02;5.90;;;4.50;;
52248;SDS011;38541;48.130;8.378;2024-03-02T06:20:29;5.60;;;4.20;;
52248;SDS011;38541;48.130;8.378;2024-03-02T06:23:02;5.82;;;4.75;;
52248;SDS011;38541;48.130;8.378;2024-03-02T06:25:29;5.93;;;4.20;;
52248;SDS011;38541;48.130;8.378;2024-03-02T06:27:55;7.72;;;5.75;;
52248;SDS011;38541;48.130;8.378;2024-03-02T06:30:22;9.63;;;5.45;;
52248;SDS011;38541;48.130;8.378;2024-03-02T06:32:49;7.25;;;5.60;;
52248;SDS011;38541;48.130;8.378;2024-03-02T06:35:15;9.20;;;4.97;;
52248;SDS011;38541;48.130;8.378;2024-03-02T06:37:42;21.38;;;6.05;;
52248;SDS011;38541;48.130;8.378;2024-03-02T06:40:08;18.88;;;5.82;;
52248;SDS011;38541;48.130;8.378;2024-03-02T06:42:35;9.82;;;4.57;;
52248;SDS011;38541;48.130;8.378;2024-03-02T06:45:02;10.10;;;7.45;;
52248;SDS011;38541;48.130;8.378;2024-03-02T06:47:29;14.05;;;8.07;;
52248;SDS011;38541;48.130;8.378;2024-03-02T06:49:56;12.75;;;7.05;;
52248;SDS011;38541;48.130;8.378;2024-03-02T06:52:24;13.25;;;6.07;;
52248;SDS011;38541;48.130;8.378;2024-03-02T06:54:51;6.50;;;4.93;;
52248;SDS011;38541;48.130;8.378;2024-03-02T06:57:17;6.72;;;4.03;;
52248;SDS011;38541;48.130;8.378;2024-03-02T06:59:46;4.82;;;4.22;;
52248;SDS011;38541;48.130;8.378;2024-03-02T07:02:13;6.15;;;4.75;;
52248;SDS011;38541;48.130;8.378;2024-03-02T07:04:40;6.32;;;4.25;;
52248;SDS011;38541;48.130;8.378;2024-03-02T07:07:06;9.30;;;5.00;;
52248;SDS011;38541;48.130;8.378;2024-03-02T07:09:33;8.13;;;6.65;;
52248;SDS011;38541;48.130;8.378;2024-03-02T07:11:59;10.20;;;7.32;;
52248;SDS011;38541;48.130;8.378;2024-03-02T07:14:26;9.18;;;7.47;;
52248;SDS011;38541;48.130;8.378;2024-03-02T07:17:12;10.60;;;7.55;;
52248;SDS011;38541;48.130;8.378;2024-03-02T07:19:39;8.43;;;6.57;;
52248;SDS011;38541;48.130;8.378;2024-03-02T07:22:06;10.00;;;8.90;;
52248;SDS011;38541;48.130;8.378;2024-03-02T07:24:43;9.30;;;8.07;;
52248;SDS011;38541;48.130;8.378;2024-03-02T07:27:12;9.73;;;7.97;;
52248;SDS011;38541;48.130;8.378;2024-03-02T07:29:39;8.52;;;7.47;;
52248;SDS011;38541;48.130;8.378;2024-03-02T07:32:06;7.80;;;7.03;;
52248;SDS011;38541;48.130;8.378;2024-03-02T07:34:34;8.40;;;7.53;;
52248;SDS011;38541;48.130;8.378;2024-03-02T07:37:00;8.90;;;7.53;;
52248;SDS011;38541;48.130;8.378;2024-03-02T07:39:27;8.90;;;7.53;;
52248;SDS011;38541;48.130;8.378;2024-03-02T07:41:54;9.25;;;8.07;;
52248;SDS011;38541;48.130;8.378;2024-03-02T07:44:21;8.02;;;7.20;;
52248;SDS011;38541;48.130;8.378;2024-03-02T07:46:48;8.93;;;7.93;;
52248;SDS011;38541;48.130;8.378;2024-03-02T07:49:18;9.63;;;8.23;;
52248;SDS011;38541;48.130;8.378;2024-03-02T07:51:45;8.50;;;7.60;;
52248;SDS011;38541;48.130;8.378;2024-03-02T07:54:11;8.93;;;7.97;;
52248;SDS011;38541;48.130;8.378;2024-03-02T07:56:38;9.23;;;8.27;;
52248;SDS011;38541;48.130;8.378;2024-03-02T07:59:05;9.20;;;8.07;;
52248;SDS011;38541;48.130;8.378;2024-03-02T08:01:31;7.88;;;7.10;;
52248;SDS011;38541;48.130;8.378;2024-03-02T08:03:59;8.60;;;7.70;;
52248;SDS011;38541;48.130;8.378;2024-03-02T08:06:27;8.30;;;7.25;;
52248;SDS011;38541;48.130;8.378;2024-03-02T08:08:54;8.07;;;7.28;;
52248;SDS011;38541;48.130;8.378;2024-03-02T08:11:21;7.78;;;6.97;;
52248;SDS011;38541;48.130;8.378;2024-03-02T08:13:48;9.65;;;7.53;;
52248;SDS011;38541;48.130;8.378;2024-03-02T08:16:15;8.02;;;6.82;;
52248;SDS011;38541;48.130;8.378;2024-03-02T08:18:42;8.02;;;7.22;;
52248;SDS011;38541;48.130;8.378;2024-03-02T08:21:09;8.52;;;7.20;;
52248;SDS011;38541;48.130;8.378;2024-03-02T08:23:35;7.63;;;6.82;;
52248;SDS011;38541;48.130;8.378;2024-03-02T08:26:06;8.07;;;6.85;;
52248;SDS011;38541;48.130;8.378;2024-03-02T08:28:32;7.45;;;6.75;;
52248;SDS011;38541;48.130;8.378;2024-03-02T08:30:59;7.85;;;7.05;;
52248;SDS011;38541;48.130;8.378;2024-03-02T08:33:26;7.28;;;6.55;;
52248;SDS011;38541;48.130;8.378;2024-03-02T08:35:53;7.35;;;6.55;;
52248;SDS011;38541;48.130;8.378;2024-03-02T08:38:19;8.57;;;7.35;;
52248;SDS011;38541;48.130;8.378;2024-03-02T08:40:46;7.70;;;6.70;;
52248;SDS011;38541;48.130;8.378;2024-03-02T08:43:13;7.20;;;6.43;;
52248;SDS011;38541;48.130;8.378;2024-03-02T08:45:40;8.45;;;7.53;;
52248;SDS011;38541;48.130;8.378;2024-03-02T08:48:07;8.57;;;6.40;;
52248;SDS011;38541;48.130;8.378;2024-03-02T08:50:37;7.30;;;6.32;;
52248;SDS011;38541;48.130;8.378;2024-03-02T08:53:03;7.55;;;6.40;;
52248;SDS011;38541;48.130;8.378;2024-03-02T08:55:30;7.85;;;7.05;;
52248;SDS011;38541;48.130;8.378;2024-03-02T08:57:57;7.93;;;7.13;;
52248;SDS011;38541;48.130;8.378;2024-03-02T09:00:24;8.43;;;6.53;;
52248;SDS011;38541;48.130;8.378;2024-03-02T09:02:51;6.82;;;6.10;;
52248;SDS011;38541;48.130;8.378;2024-03-02T09:05:18;5.93;;;5.32;;
52248;SDS011;38541;48.130;8.378;2024-03-02T09:07:44;6.40;;;5.80;;
52248;SDS011;38541;48.130;8.378;2024-03-02T09:10:11;7.00;;;6.10;;
52248;SDS011;38541;48.130;8.378;2024-03-02T09:12:37;6.88;;;5.82;;
52248;SDS011;38541;48.130;8.378;2024-03-02T09:15:05;7.72;;;7.03;;
52248;SDS011;38541;48.130;8.378;2024-03-02T09:17:32;8.48;;;6.45;;
52248;SDS011;38541;48.130;8.378;2024-03-02T09:19:59;8.68;;;6.35;;
52248;SDS011;38541;48.130;8.378;2024-03-02T09:22:25;8.38;;;7.47;;
52248;SDS011;38541;48.130;8.378;2024-03-02T09:24:52;9.65;;;6.55;;
52248;SDS011;38541;48.130;8.378;2024-03-02T09:27:19;7.57;;;6.47;;
52248;SDS011;38541;48.130;8.378;2024-03-02T09:29:45;7.03;;;6.13;;
52248;SDS011;38541;48.130;8.378;2024-03-02T09:32:12;7.30;;;6.60;;
52248;SDS011;38541;48.130;8.378;2024-03-02T09:34:40;6.50;;;5.78;;
52248;SDS011;38541;48.130;8.378;2024-03-02T09:37:06;7.28;;;6.18;;
52248;SDS011;38541;48.130;8.378;2024-03-02T09:39:34;5.55;;;5.05;;
52248;SDS011;38541;48.130;8.378;2024-03-02T09:42:01;6.85;;;5.38;;
52248;SDS011;38541;48.130;8.378;2024-03-02T09:44:27;5.20;;;4.70;;
52248;SDS011;38541;48.130;8.378;2024-03-02T09:46:54;5.70;;;5.10;;
52248;SDS011;38541;48.130;8.378;2024-03-02T09:49:21;6.47;;;5.40;;
52248;SDS011;38541;48.130;8.378;2024-03-02T09:51:48;5.70;;;5.10;;
52248;SDS011;38541;48.130;8.378;2024-03-02T09:54:15;6.22;;;5.45;;
52248;SDS011;38541;48.130;8.378;2024-03-02T09:56:48;6.40;;;5.18;;
52248;SDS011;38541;48.130;8.378;2024-03-02T09:59:16;5.75;;;5.18;;
52248;SDS011;38541;48.130;8.378;2024-03-02T10:01:58;5.80;;;5.13;;
52248;SDS011;38541;48.130;8.378;2024-03-02T10:04:26;5.53;;;4.63;;
52248;SDS011;38541;48.130;8.378;2024-03-02T10:09:42;4.60;;;3.80;;
52248;SDS011;38541;48.130;8.378;2024-03-02T10:12:11;5.35;;;4.55;;
52248;SDS011;38541;48.130;8.378;2024-03-02T10:14:38;4.32;;;3.92;;
52248;SDS011;38541;48.130;8.378;2024-03-02T10:17:06;4.97;;;4.47;;
52248;SDS011;38541;48.130;8.378;2024-03-02T10:19:34;4.82;;;3.95;;
52248;SDS011;38541;48.130;8.378;2024-03-02T10:22:02;4.70;;;3.90;;
52248;SDS011;38541;48.130;8.378;2024-03-02T10:24:37;4.22;;;3.88;;
52248;SDS011;38541;48.130;8.378;2024-03-02T10:27:17;4.28;;;3.85;;
52248;SDS011;38541;48.130;8.378;2024-03-02T10:29:48;4.50;;;3.70;;
52248;SDS011;38541;48.130;8.378;2024-03-02T10:32:16;5.85;;;3.67;;
52248;SDS011;38541;48.130;8.378;2024-03-02T10:34:44;4.15;;;3.75;;
52248;SDS011;38541;48.130;8.378;2024-03-02T10:37:12;4.38;;;3.92;;
52248;SDS011;38541;48.130;8.378;2024-03-02T10:39:40;5.35;;;3.58;;
52248;SDS011;38541;48.130;8.378;2024-03-02T10:42:07;3.42;;;3.13;;
52248;SDS011;38541;48.130;8.378;2024-03-02T10:44:34;4.15;;;3.65;;
52248;SDS011;38541;48.130;8.378;2024-03-02T10:47:02;5.35;;;4.28;;
52248;SDS011;38541;48.130;8.378;2024-03-02T10:49:30;4.15;;;3.75;;
52248;SDS011;38541;48.130;8.378;2024-03-02T10:51:58;4.32;;;3.83;;
52248;SDS011;38541;48.130;8.378;2024-03-02T10:54:25;5.18;;;4.05;;
52248;SDS011;38541;48.130;8.378;2024-03-02T10:56:53;4.90;;;4.03;;
52248;SDS011;38541;48.130;8.378;2024-03-02T11:01:59;5.50;;;3.55;;
52248;SDS011;38541;48.130;8.378;2024-03-02T11:04:31;3.65;;;3.28;;
52248;SDS011;38541;48.130;8.378;2024-03-02T11:07:06;3.88;;;3.47;;
52248;SDS011;38541;48.130;8.378;2024-03-02T11:09:34;3.83;;;3.53;;
52248;SDS011;38541;48.130;8.378;2024-03-02T11:12:05;4.38;;;3.80;;
52248;SDS011;38541;48.130;8.378;2024-03-02T11:14:36;3.58;;;2.90;;
52248;SDS011;38541;48.130;8.378;2024-03-02T11:17:06;3.17;;;2.88;;
52248;SDS011;38541;48.130;8.378;2024-03-02T11:19:33;3.88;;;3.15;;
52248;SDS011;38541;48.130;8.378;2024-03-02T11:22:01;3.50;;;2.80;;
52248;SDS011;38541;48.130;8.378;2024-03-02T11:24:30;3.88;;;3.13;;
52248;SDS011;38541;48.130;8.378;2024-03-02T11:27:07;2.88;;;2.67;;
52248;SDS011;38541;48.130;8.378;2024-03-02T11:29:42;3.20;;;2.95;;
52248;SDS011;38541;48.130;8.378;2024-03-02T11:32:13;3.17;;;2.88;;
52248;SDS011;38541;48.130;8.378;2024-03-02T11:34:42;4.43;;;2.55;;
52248;SDS011;38541;48.130;8.378;2024-03-02T11:37:11;3.40;;;3.10;;
52248;SDS011;38541;48.130;8.378;2024-03-02T11:39:39;2.83;;;2.60;;
52248;SDS011;38541;48.130;8.378;2024-03-02T11:42:09;2.78;;;2.58;;
52248;SDS011;38541;48.130;8.378;2024-03-02T11:44:37;3.67;;;2.95;;
52248;SDS011;38541;48.130;8.378;2024-03-02T11:47:08;4.18;;;2.90;;
52248;SDS011;38541;48.130;8.378;2024-03-02T11:52:06;3.38;;;2.67;;
52248;SDS011;38541;48.130;8.378;2024-03-02T11:54:39;3.20;;;2.72;;
52248;SDS011;38541;48.130;8.378;2024-03-02T11:57:14;4.70;;;2.80;;
52248;SDS011;38541;48.130;8.378;2024-03-02T11:59:42;2.92;;;2.60;;
52248;SDS011;38541;48.130;8.378;2024-03-02T12:02:14;3.40;;;2.65;;
52248;SDS011;38541;48.130;8.378;2024-03-02T12:04:43;2.83;;;2.53;;
52248;SDS011;38541;48.130;8.378;2024-03-02T12:07:11;2.58;;;2.38;;
52248;SDS011;38541;48.130;8.378;2024-03-02T12:09:38;3.13;;;2.80;;
52248;SDS011;38541;48.130;8.378;2024-03-02T12:12:06;2.65;;;2.45;;
52248;SDS011;38541;48.130;8.378;2024-03-02T12:14:35;3.30;;;2.88;;
52248;SDS011;38541;48.130;8.378;2024-03-02T12:17:03;2.35;;;2.17;;
52248;SDS011;38541;48.130;8.378;2024-03-02T12:19:30;2.70;;;2.50;;
52248;SDS011;38541;48.130;8.378;2024-03-02T12:21:58;2.60;;;2.40;;
52248;SDS011;38541;48.130;8.378;2024-03-02T12:24:29;2.47;;;2.28;;
52248;SDS011;38541;48.130;8.378;2024-03-02T12:26:56;2.40;;;2.20;;
52248;SDS011;38541;48.130;8.378;2024-03-02T12:29:23;2.22;;;2.13;;
52248;SDS011;38541;48.130;8.378;2024-03-02T12:31:51;3.17;;;2.33;;
52248;SDS011;38541;48.130;8.378;2024-03-02T12:34:18;2.63;;;2.42;;
52248;SDS011;38541;48.130;8.378;2024-03-02T12:36:46;2.85;;;2.28;;
52248;SDS011;38541;48.130;8.378;2024-03-02T12:39:16;2.97;;;2.60;;
52248;SDS011;38541;48.130;8.378;2024-03-02T12:41:43;2.83;;;2.55;;
52248;SDS011;38541;48.130;8.378;2024-03-02T12:44:09;3.58;;;2.30;;
52248;SDS011;38541;48.130;8.378;2024-03-02T12:46:36;2.58;;;2.38;;
52248;SDS011;38541;48.130;8.378;2024-03-02T12:49:22;2.80;;;2.60;;
52248;SDS011;38541;48.130;8.378;2024-03-02T12:51:48;2.40;;;2.20;;
52248;SDS011;38541;48.130;8.378;2024-03-02T12:54:18;2.67;;;2.42;;
52248;SDS011;38541;48.130;8.378;2024-03-02T12:56:48;2.28;;;2.10;;
52248;SDS011;38541;48.130;8.378;2024-03-02T12:59:18;3.78;;;2.38;;
52248;SDS011;38541;48.130;8.378;2024-03-02T13:01:54;2.42;;;2.22;;
52248;SDS011;38541;48.130;8.378;2024-03-02T13:04:24;3.83;;;2.72;;
52248;SDS011;38541;48.130;8.378;2024-03-02T13:06:55;3.67;;;2.92;;
52248;SDS011;38541;48.130;8.378;2024-03-02T13:09:25;2.47;;;2.28;;
52248;SDS011;38541;48.130;8.378;2024-03-02T13:11:53;2.85;;;2.40;;
52248;SDS011;38541;48.130;8.378;2024-03-02T13:14:21;2.60;;;2.40;;
52248;SDS011;38541;48.130;8.378;2024-03-02T13:16:48;2.40;;;2.20;;
52248;SDS011;38541;48.130;8.378;2024-03-02T13:19:18;2.53;;;2.33;;
52248;SDS011;38541;48.130;8.378;2024-03-02T13:21:47;2.42;;;2.22;;
52248;SDS011;38541;48.130;8.378;2024-03-02T13:24:14;2.40;;;2.20;;
52248;SDS011;38541;48.130;8.378;2024-03-02T13:26:41;2.20;;;2.10;;
52248;SDS011;38541;48.130;8.378;2024-03-02T13:29:08;2.60;;;2.30;;
52248;SDS011;38541;48.130;8.378;2024-03-02T13:31:35;2.28;;;2.08;;
52248;SDS011;38541;48.130;8.378;2024-03-02T13:34:01;2.78;;;1.90;;
52248;SDS011;38541;48.130;8.378;2024-03-02T13:36:28;2.65;;;2.03;;
52248;SDS011;38541;48.130;8.378;2024-03-02T13:38:54;2.75;;;2.22;;
52248;SDS011;38541;48.130;8.378;2024-03-02T13:41:21;3.13;;;2.03;;
52248;SDS011;38541;48.130;8.378;2024-03-02T13:43:47;2.00;;;1.90;;
52248;SDS011;38541;48.130;8.378;2024-03-02T13:46:16;2.40;;;2.20;;
52248;SDS011;38541;48.130;8.378;2024-03-02T13:48:42;2.03;;;1.52;;
52248;SDS011;38541;48.130;8.378;2024-03-02T13:51:09;1.98;;;1.88;;
52248;SDS011;38541;48.130;8.378;2024-03-02T13:53:36;2.05;;;1.95;;
52248;SDS011;38541;48.130;8.378;2024-03-02T13:56:02;1.70;;;1.60;;
52248;SDS011;38541;48.130;8.378;2024-03-02T13:58:29;2.15;;;1.95;;
52248;SDS011;38541;48.130;8.378;2024-03-02T14:00:56;1.50;;;1.40;;
52248;SDS011;38541;48.130;8.378;2024-03-02T14:03:23;1.30;;;1.17;;
52248;SDS011;38541;48.130;8.378;2024-03-02T14:05:51;1.23;;;1.13;;
52248;SDS011;38541;48.130;8.378;2024-03-02T14:08:19;1.55;;;1.17;;
52248;SDS011;38541;48.130;8.378;2024-03-02T14:10:45;1.58;;;1.30;;
52248;SDS011;38541;48.130;8.378;2024-03-02T14:13:12;1.27;;;1.10;;
52248;SDS011;38541;48.130;8.378;2024-03-02T14:15:39;1.45;;;1.35;;
52248;SDS011;38541;48.130;8.378;2024-03-02T14:18:06;1.05;;;1.00;;
52248;SDS011;38541;48.130;8.378;2024-03-02T14:20:32;1.20;;;1.20;;
52248;SDS011;38541;48.130;8.378;2024-03-02T14:22:59;1.10;;;1.10;;
52248;SDS011;38541;48.130;8.378;2024-03-02T14:25:26;1.00;;;1.00;;
52248;SDS011;38541;48.130;8.378;2024-03-02T14:27:52;1.00;;;1.00;;
52248;SDS011;38541;48.130;8.378;2024-03-02T14:30:39;1.15;;;1.08;;
52248;SDS011;38541;48.130;8.378;2024-03-02T14:33:05;1.77;;;1.13;;
52248;SDS011;38541;48.130;8.378;2024-03-02T14:35:32;1.30;;;1.25;;
52248;SDS011;38541;48.130;8.378;2024-03-02T14:37:59;0.90;;;0.90;;
52248;SDS011;38541;48.130;8.378;2024-03-02T14:40:25;1.83;;;1.20;;
52248;SDS011;38541;48.130;8.378;2024-03-02T14:42:53;2.20;;;1.35;;
52248;SDS011;38541;48.130;8.378;2024-03-02T14:45:20;1.42;;;1.33;;
52248;SDS011;38541;48.130;8.378;2024-03-02T14:47:47;1.40;;;1.30;;
52248;SDS011;38541;48.130;8.378;2024-03-02T14:50:13;1.58;;;1.48;;
52248;SDS011;38541;48.130;8.378;2024-03-02T14:52:44;1.20;;;1.20;;
52248;SDS011;38541;48.130;8.378;2024-03-02T14:55:11;1.30;;;1.20;;
52248;SDS011;38541;48.130;8.378;2024-03-02T14:57:38;1.80;;;1.40;;
52248;SDS011;38541;48.130;8.378;2024-03-02T15:00:05;1.17;;;1.13;;
52248;SDS011;38541;48.130;8.378;2024-03-02T15:02:34;1.85;;;1.33;;
52248;SDS011;38541;48.130;8.378;2024-03-02T15:05:00;1.27;;;1.15;;